Arctic Village, AK

6:34 AM AKST on January 21, 2017 (GMT -0900)
Arctic Village | | Change Station

Elev 2083 ft 68.12 °N, 145.58 °W | Updated 38 minutes ago

Overcast
Overcast
-18 °F
Feels Like -33 °F
N
6
Wind Variable Wind from ESE

Today
High -- | Low -- °F
--% Chance of Precip.
Yesterday
High -- | Low -- °F
Precip. -- in
Pressure 29.73 in
Visibility 8.0 miles
Clouds Overcast 2800 ft
Windchill -33 °F
Dew Point -23 °F
Humidity 78%
Rainfall 0.00 in
Snow Depth Not available.
10:47 AM 3:01 PM
Waning Crescent, 34% visible
METAR PARC 211456Z AUTO 12005KT 8SM -SN OVC028 M28/M31 A2941 RMK AO2 SLP068 P0000 60000 T12781306 53002 FZRANO
Pressure 29.73 in
Visibility 8.0 miles
Clouds Overcast 2800 ft
Windchill -33 °F
Dew Point -23 °F
Humidity 78%
Rainfall 0.00 in
Snow Depth Not available.
10:47 AM 3:01 PM
Waning Crescent, 34% visible
METAR PARC 211456Z AUTO 12005KT 8SM -SN OVC028 M28/M31 A2941 RMK AO2 SLP068 P0000 60000 T12781306 53002 FZRANO

Get Your Daily Forecast Email!

Thanks for signing up!

Be on the lookout for a verification email in your inbox.

You'll start receiving the daily forecast at 8 AM.

×

10-Day Weather Forecast

Almanac

Astronomy

Jan. 21, 2017 Rise Set
Actual Time
Civil Twilight
Nautical Twilight
Astronomical Twilight
Moon
Length of Visible Light
Length of Day
Tomorrow will be .
, % of the Moon is Illuminated

Today's Extremes

State Highs State Lows

Community

WunderPhotos

Upload Photos

1,962,540 photos uploaded!

WunderBlog® & News

Nearby

Air Quality

  Air Quality AQ Index Pollutant
Not available.

Snow Depth

Station Depth Elevation

Earthquake Activity

City Distance Mag. Time & Date
Minimum magnitude displayed is 2.5.

Coastal Water Temperatures

Place Temperature

Stations

Nearby Weather Stations

Station Location Temp. Windchill Dew Point Humidity Wind Precip. Elev Updated Type
                   

Watches & Warnings

There are currently no watches in effect.